createdAt,value
2017-12-03T00:02:18.218Z,93.90
2017-12-03T00:04:55.786Z,94.30
2017-12-03T00:07:31.262Z,93.90
2017-12-03T00:10:08.636Z,94.00
2017-12-03T00:12:46.264Z,94.20
2017-12-03T00:15:26.604Z,94.20
2017-12-03T00:18:08.371Z,94.00
2017-12-03T00:20:52.329Z,94.40
2017-12-03T00:23:27.588Z,94.70
2017-12-03T00:28:48.912Z,94.50
2017-12-03T00:31:33.788Z,94.30
2017-12-03T00:34:10.619Z,94.20
2017-12-03T00:36:45.914Z,94.10
2017-12-03T00:39:23.425Z,93.90
2017-12-03T00:42:01.755Z,94.10
2017-12-03T00:44:39.920Z,94.00
2017-12-03T00:50:06.756Z,93.70
2017-12-03T00:52:45.962Z,93.80
2017-12-03T00:55:25.996Z,93.70
2017-12-03T00:58:05.966Z,93.60
2017-12-03T01:00:41.449Z,94.20
2017-12-03T01:03:20.384Z,94.10
2017-12-03T01:05:57.482Z,94.00
2017-12-03T01:08:42.698Z,94.00
2017-12-03T01:11:26.383Z,93.60
2017-12-03T01:14:04.925Z,93.30
2017-12-03T01:16:43.496Z,93.20
2017-12-03T01:19:20.890Z,92.80
2017-12-03T01:22:04.815Z,92.90
2017-12-03T01:24:47.221Z,91.50
2017-12-03T01:27:22.758Z,91.50
2017-12-03T01:32:46.719Z,92.00
2017-12-03T01:35:24.368Z,92.60
2017-12-03T01:38:01.796Z,93.10
2017-12-03T01:40:36.573Z,92.70
2017-12-03T01:43:11.714Z,92.80
2017-12-03T01:45:47.073Z,91.60
2017-12-03T01:48:23.195Z,92.00
2017-12-03T01:53:46.489Z,92.40
2017-12-03T01:56:21.788Z,92.40
2017-12-03T01:59:02.008Z,91.90
2017-12-03T02:01:39.083Z,91.10
2017-12-03T02:04:13.859Z,90.80
2017-12-03T02:06:57.900Z,90.80
2017-12-03T02:09:34.413Z,90.90
2017-12-03T02:12:09.327Z,90.70
2017-12-03T02:14:47.945Z,90.60
2017-12-03T02:17:27.108Z,90.80
2017-12-03T02:20:06.035Z,91.00
2017-12-03T02:22:47.130Z,90.90
2017-12-03T02:25:25.619Z,90.60
2017-12-03T02:28:05.754Z,90.20
2017-12-03T02:30:49.312Z,88.30
2017-12-03T02:33:27.637Z,89.60
2017-12-03T02:36:04.491Z,90.10
2017-12-03T02:38:46.054Z,90.40
2017-12-03T02:41:31.836Z,90.40
2017-12-03T02:44:10.216Z,90.40
2017-12-03T02:46:48.555Z,90.50
2017-12-03T02:49:24.691Z,91.00
2017-12-03T02:52:07.654Z,90.70
2017-12-03T02:54:45.659Z,90.70
2017-12-03T02:57:24.819Z,91.00
2017-12-03T03:00:06.035Z,90.90
2017-12-03T03:02:46.812Z,90.40
2017-12-03T03:05:24.665Z,90.90
2017-12-03T03:08:01.744Z,90.80
2017-12-03T03:10:45.583Z,91.00
2017-12-03T03:13:32.999Z,90.60
2017-12-03T03:16:08.535Z,90.10
2017-12-03T03:18:43.708Z,89.20
2017-12-03T03:21:23.933Z,90.70
2017-12-03T03:24:00.372Z,90.40
2017-12-03T03:26:37.159Z,90.50
2017-12-03T03:29:20.994Z,91.20
2017-12-03T03:32:00.360Z,91.00
2017-12-03T03:34:41.632Z,90.80
2017-12-03T03:37:21.095Z,90.50
2017-12-03T03:40:06.762Z,90.20
2017-12-03T03:42:41.174Z,91.00
2017-12-03T03:45:15.123Z,91.90
2017-12-03T03:47:49.721Z,91.80
2017-12-03T03:50:25.557Z,91.80
2017-12-03T03:52:59.496Z,92.20
2017-12-03T03:55:34.287Z,91.40
2017-12-03T03:58:12.582Z,91.00
2017-12-03T04:00:47.654Z,91.00
2017-12-03T04:03:34.218Z,91.40
2017-12-03T04:06:08.283Z,91.10
2017-12-03T04:08:42.706Z,92.30
2017-12-03T04:11:28.265Z,95.80
2017-12-03T04:14:06.083Z,95.80
2017-12-03T04:16:44.691Z,96.00
2017-12-03T04:19:21.431Z,95.30
2017-12-03T04:21:57.836Z,94.40
2017-12-03T04:24:33.560Z,93.80
2017-12-03T04:27:12.469Z,93.90
2017-12-03T04:29:47.566Z,93.20
2017-12-03T04:32:21.175Z,93.20
2017-12-03T04:34:54.976Z,93.60
2017-12-03T04:37:28.818Z,94.50
2017-12-03T04:40:03.560Z,94.40
2017-12-03T04:42:37.535Z,94.60
2017-12-03T04:45:12.104Z,94.40
2017-12-03T04:47:45.780Z,94.30
2017-12-03T04:50:19.635Z,94.30
2017-12-03T04:52:54.287Z,94.00
2017-12-03T04:55:28.551Z,94.20
2017-12-03T04:58:02.214Z,93.90
2017-12-03T05:00:37.197Z,95.70
2017-12-03T05:03:10.967Z,97.20
2017-12-03T05:05:45.905Z,97.50
2017-12-03T05:08:20.665Z,97.00
2017-12-03T05:10:55.649Z,97.00
2017-12-03T05:13:32.116Z,95.30
2017-12-03T05:16:07.942Z,95.20
2017-12-03T05:18:43.462Z,94.60
2017-12-03T05:21:19.124Z,94.50
2017-12-03T05:23:53.883Z,94.80
2017-12-03T05:26:28.582Z,94.70
2017-12-03T05:29:02.610Z,93.80
2017-12-03T05:31:39.175Z,93.80
2017-12-03T05:34:14.750Z,93.50
2017-12-03T05:36:52.132Z,93.40
2017-12-03T05:39:26.850Z,93.60
2017-12-03T05:42:04.526Z,94.10
2017-12-03T05:44:39.890Z,94.10
2017-12-03T05:47:14.913Z,94.80
2017-12-03T05:49:49.934Z,95.80
2017-12-03T05:52:25.091Z,95.70
2017-12-03T05:54:59.449Z,94.60
2017-12-03T05:57:34.509Z,94.20
2017-12-03T06:00:09.338Z,94.10
2017-12-03T06:02:43.503Z,94.30
2017-12-03T06:05:17.178Z,94.30
2017-12-03T06:07:51.324Z,93.30
2017-12-03T06:10:26.208Z,94.00
2017-12-03T06:13:01.040Z,93.90
2017-12-03T06:15:36.695Z,93.90
2017-12-03T06:18:12.261Z,93.90
2017-12-03T06:20:47.066Z,93.10
2017-12-03T06:23:23.065Z,93.60
2017-12-03T06:25:58.170Z,94.30
2017-12-03T06:28:33.083Z,93.40
2017-12-03T06:31:07.552Z,94.10
2017-12-03T06:33:42.539Z,94.40
2017-12-03T06:36:23.332Z,95.40
2017-12-03T06:38:57.307Z,95.40
2017-12-03T06:41:32.214Z,96.30
2017-12-03T06:44:06.649Z,96.90
2017-12-03T06:46:42.054Z,96.80
2017-12-03T06:49:17.385Z,95.70
2017-12-03T06:51:52.177Z,96.00
2017-12-03T06:54:27.374Z,95.30
2017-12-03T06:57:03.053Z,95.60
2017-12-03T06:59:38.814Z,95.60
2017-12-03T07:02:13.192Z,95.70
2017-12-03T07:04:49.062Z,95.90
2017-12-03T07:07:24.527Z,95.30
2017-12-03T07:10:00.073Z,95.20
2017-12-03T07:12:36.077Z,94.70
2017-12-03T07:15:11.170Z,94.80
2017-12-03T07:17:46.808Z,94.00
2017-12-03T07:20:22.013Z,94.40
2017-12-03T07:22:56.915Z,93.30
2017-12-03T07:25:33.296Z,93.20
2017-12-03T07:28:09.524Z,92.90
2017-12-03T07:30:44.901Z,92.90
2017-12-03T07:33:19.024Z,92.80
2017-12-03T07:35:53.484Z,92.10
2017-12-03T07:38:28.323Z,91.80
2017-12-03T07:41:03.326Z,91.30
2017-12-03T07:43:39.601Z,91.20
2017-12-03T07:46:14.733Z,90.80
2017-12-03T07:48:50.709Z,91.30
2017-12-03T07:51:28.680Z,90.70
2017-12-03T07:54:05.047Z,90.70
2017-12-03T07:56:41.045Z,90.90
2017-12-03T07:59:15.215Z,90.80
2017-12-03T08:01:49.621Z,90.30
2017-12-03T08:04:23.716Z,90.60
2017-12-03T08:06:58.030Z,89.90
2017-12-03T08:09:35.439Z,90.40
2017-12-03T08:12:09.810Z,89.40
2017-12-03T08:14:43.891Z,89.80
2017-12-03T08:17:17.670Z,89.60
2017-12-03T08:19:51.556Z,89.10
2017-12-03T08:22:26.787Z,88.20
2017-12-03T08:25:00.422Z,88.10
2017-12-03T08:27:34.273Z,87.80
2017-12-03T08:30:08.959Z,90.90
2017-12-03T08:32:43.445Z,90.70
2017-12-03T08:35:18.537Z,90.70
2017-12-03T08:37:55.207Z,91.00
2017-12-03T08:40:28.863Z,91.80
2017-12-03T08:43:03.452Z,92.40
2017-12-03T08:45:38.225Z,92.40
2017-12-03T08:48:12.462Z,92.40
2017-12-03T08:50:48.076Z,92.90
2017-12-03T08:53:21.727Z,92.00
2017-12-03T08:55:57.102Z,90.90
2017-12-03T08:58:30.841Z,90.90
2017-12-03T09:01:04.509Z,90.60
2017-12-03T09:03:38.693Z,91.40
2017-12-03T09:06:12.515Z,90.80
2017-12-03T09:08:46.330Z,91.10
2017-12-03T09:11:20.887Z,91.80
2017-12-03T09:13:54.786Z,91.80
2017-12-03T09:16:29.358Z,91.20
2017-12-03T09:19:03.180Z,91.10
2017-12-03T09:21:38.193Z,91.60
2017-12-03T09:24:11.965Z,91.00
2017-12-03T09:26:45.806Z,90.50
2017-12-03T09:29:21.472Z,90.50
2017-12-03T09:31:56.042Z,90.90
2017-12-03T09:34:29.892Z,91.00
2017-12-03T09:37:04.497Z,88.90
2017-12-03T09:39:39.470Z,88.80
2017-12-03T09:42:15.565Z,88.80
2017-12-03T09:44:49.338Z,89.80
2017-12-03T09:47:27.172Z,89.20
2017-12-03T09:50:03.949Z,89.70
2017-12-03T09:52:38.188Z,88.70
2017-12-03T09:55:12.027Z,88.30
2017-12-03T09:57:46.513Z,88.90
2017-12-03T10:00:21.807Z,88.90
2017-12-03T10:02:55.711Z,86.40
2017-12-03T10:05:30.314Z,85.70
2017-12-03T10:08:04.846Z,86.10
2017-12-03T10:10:38.751Z,85.80
2017-12-03T10:13:12.547Z,87.10
2017-12-03T10:15:46.316Z,86.30
2017-12-03T10:18:21.149Z,85.00
2017-12-03T10:20:54.936Z,84.90
2017-12-03T10:23:28.666Z,86.40
2017-12-03T10:26:02.381Z,86.00
2017-12-03T10:28:36.595Z,83.60
2017-12-03T10:31:10.306Z,85.30
2017-12-03T10:33:44.193Z,84.70
2017-12-03T10:36:18.034Z,81.50
2017-12-03T10:38:52.323Z,80.00
2017-12-03T10:41:26.102Z,80.00
2017-12-03T10:43:59.821Z,81.80
2017-12-03T10:46:33.698Z,78.90
2017-12-03T10:49:08.256Z,79.60
2017-12-03T10:51:42.006Z,79.50
2017-12-03T10:54:16.281Z,80.10
2017-12-03T10:56:49.907Z,79.90
2017-12-03T10:59:23.566Z,81.50
2017-12-03T11:01:57.188Z,79.60
2017-12-03T11:04:30.991Z,78.10
2017-12-03T11:07:04.593Z,78.90
2017-12-03T11:09:39.057Z,77.10
2017-12-03T11:12:13.673Z,75.50
2017-12-03T11:14:47.375Z,75.50
2017-12-03T11:17:20.974Z,76.40
2017-12-03T11:19:55.478Z,74.90
2017-12-03T11:22:29.108Z,74.90
2017-12-03T11:25:02.886Z,74.20
2017-12-03T11:27:37.554Z,78.10
2017-12-03T11:30:11.375Z,78.00
2017-12-03T11:32:45.933Z,76.00
2017-12-03T11:35:19.683Z,75.90
2017-12-03T11:37:53.419Z,73.40
2017-12-03T11:40:27.092Z,77.30
2017-12-03T11:43:00.677Z,77.50
2017-12-03T11:45:34.254Z,74.50
2017-12-03T11:48:07.859Z,74.20
2017-12-03T11:50:41.493Z,76.30
2017-12-03T11:53:16.091Z,79.10
2017-12-03T11:55:49.948Z,79.10
2017-12-03T11:58:24.543Z,79.00
2017-12-03T12:00:58.394Z,78.90
2017-12-03T12:03:32.898Z,78.80
2017-12-03T12:06:06.711Z,78.80
2017-12-03T12:08:40.387Z,81.10
2017-12-03T12:11:14.153Z,81.20
2017-12-03T12:13:47.890Z,82.10
2017-12-03T12:16:21.477Z,81.90
2017-12-03T12:18:56.223Z,84.20
2017-12-03T12:21:29.895Z,83.40
2017-12-03T12:24:03.480Z,83.60
2017-12-03T12:26:37.257Z,82.50
2017-12-03T12:29:10.880Z,85.50
2017-12-03T12:31:44.600Z,84.60
2017-12-03T12:34:18.745Z,84.20
2017-12-03T12:36:52.608Z,86.10
2017-12-03T12:39:26.289Z,86.90
2017-12-03T12:41:59.929Z,84.10
2017-12-03T12:44:33.658Z,84.90
2017-12-03T12:47:07.514Z,86.20
2017-12-03T12:49:41.165Z,83.30
2017-12-03T12:52:15.519Z,81.90
2017-12-03T12:54:49.254Z,81.80
2017-12-03T12:57:22.935Z,80.70
2017-12-03T12:59:57.266Z,82.60
2017-12-03T13:02:31.100Z,82.60
2017-12-03T13:05:05.564Z,81.10
2017-12-03T13:07:39.288Z,81.00
2017-12-03T13:10:12.877Z,81.50
2017-12-03T13:12:46.771Z,80.50
2017-12-03T13:15:20.449Z,79.90
2017-12-03T13:17:54.213Z,80.80
2017-12-03T13:20:27.846Z,81.40
2017-12-03T13:23:01.510Z,81.40
2017-12-03T13:25:36.172Z,80.00
2017-12-03T13:28:09.962Z,79.90
2017-12-03T13:30:43.541Z,80.80
2017-12-03T13:33:17.430Z,83.90
2017-12-03T13:35:51.191Z,84.90
2017-12-03T13:38:25.053Z,82.10
2017-12-03T13:40:59.372Z,82.40
2017-12-03T13:43:33.751Z,81.70
2017-12-03T13:46:07.550Z,81.60
2017-12-03T13:48:41.375Z,83.00
2017-12-03T13:51:16.123Z,82.60
2017-12-03T13:53:49.830Z,82.50
2017-12-03T13:56:23.443Z,82.00
2017-12-03T13:58:58.896Z,81.80
2017-12-03T14:01:32.668Z,82.40
2017-12-03T14:04:07.258Z,80.50
2017-12-03T14:06:41.093Z,80.30
2017-12-03T14:09:15.647Z,79.00
2017-12-03T14:11:49.344Z,79.00
2017-12-03T14:14:23.152Z,80.70
2017-12-03T14:16:56.693Z,80.80
2017-12-03T14:19:30.490Z,82.40
2017-12-03T14:22:04.137Z,79.10
2017-12-03T14:24:39.121Z,78.90
2017-12-03T14:27:12.873Z,79.50
2017-12-03T14:29:46.757Z,78.60
2017-12-03T14:32:20.577Z,78.80
2017-12-03T14:34:54.375Z,79.40
2017-12-03T14:37:27.933Z,80.10
2017-12-03T14:40:01.751Z,80.10
2017-12-03T14:42:35.459Z,80.00
2017-12-03T14:45:09.303Z,79.70
2017-12-03T14:47:43.244Z,79.30
2017-12-03T14:50:16.975Z,79.60
2017-12-03T14:52:50.790Z,80.10
2017-12-03T14:55:24.465Z,80.80
2017-12-03T14:57:58.208Z,81.50
2017-12-03T15:00:31.903Z,83.40
2017-12-03T15:03:05.492Z,81.90
2017-12-03T15:05:39.184Z,82.70
2017-12-03T15:08:12.925Z,82.30
2017-12-03T15:10:46.856Z,81.60
2017-12-03T15:13:21.637Z,81.30
2017-12-03T15:15:55.373Z,80.70
2017-12-03T15:18:29.182Z,82.00
2017-12-03T15:21:03.647Z,84.20
2017-12-03T15:23:37.466Z,84.20
2017-12-03T15:26:12.140Z,84.80
2017-12-03T15:28:45.914Z,84.80
2017-12-03T15:31:20.479Z,87.20
2017-12-03T15:33:54.351Z,87.10
2017-12-03T15:36:28.127Z,88.50
2017-12-03T15:39:02.652Z,90.30
2017-12-03T15:41:36.521Z,90.20
2017-12-03T15:44:10.396Z,90.40
2017-12-03T15:46:44.010Z,90.20
2017-12-03T15:49:17.619Z,90.10
2017-12-03T15:51:51.216Z,90.40
2017-12-03T15:54:24.845Z,89.10
2017-12-03T15:56:58.446Z,90.40
2017-12-03T15:59:32.284Z,89.90
2017-12-03T16:02:06.791Z,88.60
2017-12-03T16:04:41.510Z,88.40
2017-12-03T16:07:15.170Z,87.90
2017-12-03T16:09:48.985Z,88.50
2017-12-03T16:12:22.853Z,90.10
2017-12-03T16:14:56.780Z,90.50
2017-12-03T16:17:30.572Z,90.50
2017-12-03T16:20:04.851Z,90.70
2017-12-03T16:22:39.164Z,91.90
2017-12-03T16:25:12.742Z,91.70
2017-12-03T16:27:46.587Z,91.20
2017-12-03T16:30:20.444Z,92.40
2017-12-03T16:32:54.112Z,91.80
2017-12-03T16:35:27.913Z,92.10
2017-12-03T16:38:01.625Z,92.40
2017-12-03T16:40:35.355Z,92.70
2017-12-03T16:43:09.165Z,93.00
2017-12-03T16:45:43.290Z,93.10
2017-12-03T16:48:17.025Z,93.00
2017-12-03T16:50:51.600Z,92.50
2017-12-03T16:53:25.321Z,92.40
2017-12-03T16:55:59.679Z,93.40
2017-12-03T16:58:33.390Z,93.30
2017-12-03T17:01:22.053Z,92.90
2017-12-03T17:03:56.480Z,92.70
2017-12-03T17:06:30.169Z,92.60
2017-12-03T17:09:04.044Z,93.10
2017-12-03T17:11:37.838Z,93.50
2017-12-03T17:14:11.622Z,93.70
2017-12-03T17:16:46.032Z,92.80
2017-12-03T17:19:19.761Z,92.80
2017-12-03T17:21:53.329Z,92.20
2017-12-03T17:24:27.000Z,92.00
2017-12-03T17:27:00.655Z,91.90
2017-12-03T17:29:35.155Z,91.40
2017-12-03T17:32:08.772Z,91.40
2017-12-03T17:34:42.614Z,91.70
2017-12-03T17:37:17.173Z,91.40
2017-12-03T17:39:50.925Z,91.30
2017-12-03T17:42:24.650Z,91.50
2017-12-03T17:44:58.432Z,92.00
2017-12-03T17:47:32.254Z,92.10
2017-12-03T17:50:06.052Z,92.00
2017-12-03T17:52:39.815Z,92.00
2017-12-03T17:55:14.334Z,92.40
2017-12-03T17:57:47.979Z,92.40
2017-12-03T18:00:21.751Z,92.00
2017-12-03T18:02:55.357Z,92.30
2017-12-03T18:05:29.014Z,92.20
2017-12-03T18:08:02.564Z,92.00
2017-12-03T18:10:37.618Z,91.60
2017-12-03T18:13:11.287Z,91.60
2017-12-03T18:15:45.093Z,91.50
2017-12-03T18:18:18.712Z,91.80
2017-12-03T18:20:52.408Z,91.50
2017-12-03T18:23:26.232Z,91.90
2017-12-03T18:25:59.789Z,92.10
2017-12-03T18:28:33.496Z,91.90
2017-12-03T18:31:07.320Z,92.00
2017-12-03T18:33:41.032Z,92.50
2017-12-03T18:36:14.750Z,92.30
2017-12-03T18:38:48.371Z,92.80
2017-12-03T18:41:22.134Z,92.90
2017-12-03T18:43:55.911Z,91.80
2017-12-03T18:46:29.685Z,92.10
2017-12-03T18:49:04.222Z,92.60
2017-12-03T18:51:38.055Z,92.60
2017-12-03T18:54:11.822Z,92.80
2017-12-03T18:56:45.599Z,92.00
2017-12-03T18:59:20.097Z,93.50
2017-12-03T19:01:57.468Z,93.50
2017-12-03T19:04:31.083Z,94.10
2017-12-03T19:07:05.509Z,94.70
2017-12-03T19:09:39.122Z,94.70
2017-12-03T19:12:13.611Z,96.30
2017-12-03T19:14:48.237Z,97.10
2017-12-03T19:17:22.103Z,97.10
2017-12-03T19:19:55.866Z,98.60
2017-12-03T19:22:29.637Z,99.10
2017-12-03T19:25:03.392Z,99.10
2017-12-03T19:27:37.225Z,98.50
2017-12-03T19:30:10.851Z,98.90
2017-12-03T19:32:44.684Z,99.90
2017-12-03T19:35:18.356Z,99.70
2017-12-03T19:37:52.171Z,99.60
2017-12-03T19:40:25.799Z,98.60
2017-12-03T19:42:59.433Z,98.10
2017-12-03T19:45:33.367Z,99.90
2017-12-03T19:48:07.959Z,99.90
2017-12-03T19:50:41.819Z,99.90
2017-12-03T19:53:15.582Z,99.90
2017-12-03T19:55:49.486Z,99.90
2017-12-03T19:58:23.348Z,99.90
2017-12-03T20:00:57.906Z,99.90
2017-12-03T20:03:31.606Z,99.90
2017-12-03T20:06:05.174Z,99.90
2017-12-03T20:08:38.936Z,99.90
2017-12-03T20:11:12.524Z,99.90
2017-12-03T20:13:46.091Z,99.90
2017-12-03T20:16:19.633Z,99.90
2017-12-03T20:18:53.211Z,99.90
2017-12-03T20:21:26.836Z,99.90
2017-12-03T20:24:01.370Z,99.90
2017-12-03T20:26:34.984Z,99.90
2017-12-03T20:29:08.712Z,99.90
2017-12-03T20:31:42.289Z,99.90
2017-12-03T20:34:15.859Z,99.90
2017-12-03T20:36:49.411Z,99.90
2017-12-03T20:39:23.078Z,99.90
2017-12-03T20:41:56.746Z,99.90
2017-12-03T20:44:30.315Z,99.90
2017-12-03T20:47:03.883Z,99.90
2017-12-03T20:49:37.445Z,99.90
2017-12-03T20:52:11.858Z,99.90
2017-12-03T20:54:45.431Z,99.90
2017-12-03T20:57:19.193Z,99.90
2017-12-03T20:59:52.906Z,99.90
2017-12-03T21:02:26.537Z,99.90
2017-12-03T21:05:00.094Z,99.90
2017-12-03T21:07:33.600Z,99.90
2017-12-03T21:10:07.249Z,99.90
2017-12-03T21:12:40.881Z,99.90
2017-12-03T21:15:15.187Z,99.90
2017-12-03T21:17:49.677Z,99.90
2017-12-03T21:20:23.329Z,99.90
2017-12-03T21:22:57.017Z,99.90
2017-12-03T21:25:30.612Z,99.90
2017-12-03T21:28:04.163Z,99.90
2017-12-03T21:30:37.639Z,99.90
2017-12-03T21:33:11.337Z,99.90
2017-12-03T21:35:44.885Z,99.90
2017-12-03T21:38:18.763Z,99.90
2017-12-03T21:40:52.425Z,99.90
2017-12-03T21:43:26.147Z,99.90
2017-12-03T21:45:59.649Z,99.90
2017-12-03T21:48:33.262Z,99.90
2017-12-03T21:51:07.662Z,99.90
2017-12-03T21:53:42.089Z,99.90
2017-12-03T21:56:16.793Z,99.90
2017-12-03T21:58:50.416Z,99.90
2017-12-03T22:01:23.987Z,99.90
2017-12-03T22:03:57.725Z,99.90
2017-12-03T22:06:31.489Z,99.90
2017-12-03T22:09:08.742Z,99.90
2017-12-03T22:11:43.206Z,99.90
2017-12-03T22:14:16.797Z,99.90
2017-12-03T22:16:51.143Z,99.90
2017-12-03T22:19:24.857Z,99.90
2017-12-03T22:21:58.480Z,99.90
2017-12-03T22:24:32.027Z,99.90
2017-12-03T22:27:05.823Z,99.90
2017-12-03T22:29:39.370Z,99.90
2017-12-03T22:32:13.729Z,99.90
2017-12-03T22:34:47.459Z,99.90
2017-12-03T22:37:21.813Z,99.90
2017-12-03T22:39:55.382Z,99.90
2017-12-03T22:42:28.999Z,99.90
2017-12-03T22:45:02.572Z,99.90
2017-12-03T22:47:36.092Z,99.90
2017-12-03T22:50:09.709Z,99.90
2017-12-03T22:52:43.401Z,99.90
2017-12-03T22:55:18.887Z,99.90
2017-12-03T22:57:53.239Z,99.90
2017-12-03T23:00:34.329Z,99.90
2017-12-03T23:03:08.015Z,99.90
2017-12-03T23:05:41.567Z,99.90
2017-12-03T23:08:15.304Z,99.90
2017-12-03T23:10:49.647Z,99.90
2017-12-03T23:13:23.221Z,99.90
2017-12-03T23:15:57.666Z,99.90
2017-12-03T23:18:31.271Z,99.90
2017-12-03T23:21:05.828Z,99.90
2017-12-03T23:23:39.495Z,99.90
2017-12-03T23:26:13.230Z,99.90
2017-12-03T23:28:46.764Z,99.90
2017-12-03T23:31:20.343Z,99.90
2017-12-03T23:33:55.938Z,99.90
2017-12-03T23:36:29.501Z,99.90
2017-12-03T23:39:03.872Z,99.90
2017-12-03T23:41:37.447Z,99.90
2017-12-03T23:44:10.996Z,99.90
2017-12-03T23:46:44.709Z,99.90
2017-12-03T23:49:21.205Z,99.90
2017-12-03T23:51:55.024Z,99.90
2017-12-03T23:54:28.680Z,99.90
2017-12-03T23:57:02.266Z,99.90
2017-12-03T23:59:35.854Z,99.90
